sensor_id;sensor_type;location;lat;lon;timestamp;temperature;humidity
22795;DHT22;11564;50.920;11.612;2022-10-19T00:01:40;12.30;99.90
22795;DHT22;11564;50.920;11.612;2022-10-19T00:04:06;12.30;99.90
22795;DHT22;11564;50.920;11.612;2022-10-19T00:06:33;12.20;99.90
22795;DHT22;11564;50.920;11.612;2022-10-19T00:09:05;12.10;99.90
22795;DHT22;11564;50.920;11.612;2022-10-19T00:11:32;12.10;99.90
22795;DHT22;11564;50.920;11.612;2022-10-19T00:13:58;12.10;99.90
22795;DHT22;11564;50.920;11.612;2022-10-19T00:16:26;12.10;99.90
22795;DHT22;11564;50.920;11.612;2022-10-19T00:18:55;12.00;99.90
22795;DHT22;11564;50.920;11.612;2022-10-19T00:21:21;12.00;99.90
22795;DHT22;11564;50.920;11.612;2022-10-19T00:23:48;12.00;99.90
22795;DHT22;11564;50.920;11.612;2022-10-19T00:26:14;12.00;99.90
22795;DHT22;11564;50.920;11.612;2022-10-19T00:28:40;11.90;99.90
22795;DHT22;11564;50.920;11.612;2022-10-19T00:31:08;12.00;99.90
22795;DHT22;11564;50.920;11.612;2022-10-19T00:33:35;11.90;99.90
22795;DHT22;11564;50.920;11.612;2022-10-19T00:36:01;11.90;99.90
22795;DHT22;11564;50.920;11.612;2022-10-19T00:38:27;11.90;99.90
22795;DHT22;11564;50.920;11.612;2022-10-19T00:40:53;11.90;99.90
22795;DHT22;11564;50.920;11.612;2022-10-19T00:43:27;11.80;99.90
22795;DHT22;11564;50.920;11.612;2022-10-19T00:45:54;11.70;99.90
22795;DHT22;11564;50.920;11.612;2022-10-19T00:48:29;11.60;99.90
22795;DHT22;11564;50.920;11.612;2022-10-19T00:50:56;11.60;99.90
22795;DHT22;11564;50.920;11.612;2022-10-19T00:53:25;11.50;99.90
22795;DHT22;11564;50.920;11.612;2022-10-19T00:55:52;11.50;99.90
22795;DHT22;11564;50.920;11.612;2022-10-19T00:58:18;11.40;99.90
22795;DHT22;11564;50.920;11.612;2022-10-19T01:00:44;11.30;99.90
22795;DHT22;11564;50.920;11.612;2022-10-19T01:03:11;11.20;99.90
22795;DHT22;11564;50.920;11.612;2022-10-19T01:05:37;11.10;99.90
22795;DHT22;11564;50.920;11.612;2022-10-19T01:08:05;10.90;99.90
22795;DHT22;11564;50.920;11.612;2022-10-19T01:13:45;10.80;99.90
22795;DHT22;11564;50.920;11.612;2022-10-19T01:24:47;10.50;99.90
22795;DHT22;11564;50.920;11.612;2022-10-19T01:30:08;10.50;99.90
22795;DHT22;11564;50.920;11.612;2022-10-19T01:38:33;10.60;99.90
22795;DHT22;11564;50.920;11.612;2022-10-19T01:41:10;10.60;99.90
22795;DHT22;11564;50.920;11.612;2022-10-19T01:43:43;10.50;99.90
22795;DHT22;11564;50.920;11.612;2022-10-19T01:46:26;10.50;99.90
22795;DHT22;11564;50.920;11.612;2022-10-19T01:49:14;10.50;99.90
22795;DHT22;11564;50.920;11.612;2022-10-19T01:51:49;10.40;99.90
22795;DHT22;11564;50.920;11.612;2022-10-19T01:54:18;10.40;99.90
22795;DHT22;11564;50.920;11.612;2022-10-19T01:56:46;10.30;99.90
22795;DHT22;11564;50.920;11.612;2022-10-19T01:59:13;10.20;99.90
22795;DHT22;11564;50.920;11.612;2022-10-19T02:01:42;10.10;99.90
22795;DHT22;11564;50.920;11.612;2022-10-19T02:04:11;10.00;99.90
22795;DHT22;11564;50.920;11.612;2022-10-19T02:06:37;10.10;99.90
22795;DHT22;11564;50.920;11.612;2022-10-19T02:09:03;10.00;99.90
22795;DHT22;11564;50.920;11.612;2022-10-19T02:11:30;10.00;99.90
22795;DHT22;11564;50.920;11.612;2022-10-19T02:14:00;10.00;99.90
22795;DHT22;11564;50.920;11.612;2022-10-19T02:16:41;9.90;99.90
22795;DHT22;11564;50.920;11.612;2022-10-19T02:19:10;9.70;99.90
22795;DHT22;11564;50.920;11.612;2022-10-19T02:21:37;9.60;99.90
22795;DHT22;11564;50.920;11.612;2022-10-19T02:24:03;9.50;99.90
22795;DHT22;11564;50.920;11.612;2022-10-19T02:26:29;9.40;99.90
22795;DHT22;11564;50.920;11.612;2022-10-19T02:28:55;9.30;99.90
22795;DHT22;11564;50.920;11.612;2022-10-19T02:31:21;9.20;99.90
22795;DHT22;11564;50.920;11.612;2022-10-19T02:33:47;9.10;99.90
22795;DHT22;11564;50.920;11.612;2022-10-19T02:36:13;9.00;99.90
22795;DHT22;11564;50.920;11.612;2022-10-19T02:38:40;9.00;99.90
22795;DHT22;11564;50.920;11.612;2022-10-19T02:41:19;8.90;99.90
22795;DHT22;11564;50.920;11.612;2022-10-19T02:43:53;8.80;99.90
22795;DHT22;11564;50.920;11.612;2022-10-19T02:46:49;8.70;99.90
22795;DHT22;11564;50.920;11.612;2022-10-19T02:49:17;8.60;99.90
22795;DHT22;11564;50.920;11.612;2022-10-19T02:54:22;8.70;99.90
22795;DHT22;11564;50.920;11.612;2022-10-19T02:56:48;8.80;99.90
22795;DHT22;11564;50.920;11.612;2022-10-19T02:59:14;9.00;99.90
22795;DHT22;11564;50.920;11.612;2022-10-19T03:01:39;9.10;99.90
22795;DHT22;11564;50.920;11.612;2022-10-19T03:04:05;9.20;99.90
22795;DHT22;11564;50.920;11.612;2022-10-19T03:06:30;9.30;99.90
22795;DHT22;11564;50.920;11.612;2022-10-19T03:08:56;9.40;99.90
22795;DHT22;11564;50.920;11.612;2022-10-19T03:11:22;9.40;99.90
22795;DHT22;11564;50.920;11.612;2022-10-19T03:13:47;9.50;99.90
22795;DHT22;11564;50.920;11.612;2022-10-19T03:16:13;9.50;99.90
22795;DHT22;11564;50.920;11.612;2022-10-19T03:18:38;9.60;99.90
22795;DHT22;11564;50.920;11.612;2022-10-19T03:21:10;9.70;99.90
22795;DHT22;11564;50.920;11.612;2022-10-19T03:23:36;9.80;99.90
22795;DHT22;11564;50.920;11.612;2022-10-19T03:26:03;9.80;99.90
22795;DHT22;11564;50.920;11.612;2022-10-19T03:28:29;9.90;99.90
22795;DHT22;11564;50.920;11.612;2022-10-19T03:30:54;9.90;99.90
22795;DHT22;11564;50.920;11.612;2022-10-19T03:33:20;10.00;99.90
22795;DHT22;11564;50.920;11.612;2022-10-19T03:35:46;10.10;99.90
22795;DHT22;11564;50.920;11.612;2022-10-19T03:38:12;10.10;99.90
22795;DHT22;11564;50.920;11.612;2022-10-19T03:40:38;10.10;99.90
22795;DHT22;11564;50.920;11.612;2022-10-19T03:43:04;10.10;99.90
22795;DHT22;11564;50.920;11.612;2022-10-19T03:45:29;10.00;99.90
22795;DHT22;11564;50.920;11.612;2022-10-19T03:47:55;10.10;99.90
22795;DHT22;11564;50.920;11.612;2022-10-19T03:50:20;10.00;99.90
22795;DHT22;11564;50.920;11.612;2022-10-19T03:52:46;10.00;99.90
22795;DHT22;11564;50.920;11.612;2022-10-19T03:55:14;10.10;99.90
22795;DHT22;11564;50.920;11.612;2022-10-19T03:57:40;10.20;99.90
22795;DHT22;11564;50.920;11.612;2022-10-19T04:00:06;10.30;99.90
22795;DHT22;11564;50.920;11.612;2022-10-19T04:02:32;10.30;99.90
22795;DHT22;11564;50.920;11.612;2022-10-19T04:04:58;10.30;99.90
22795;DHT22;11564;50.920;11.612;2022-10-19T04:07:23;10.40;99.90
22795;DHT22;11564;50.920;11.612;2022-10-19T04:09:49;10.40;99.90
22795;DHT22;11564;50.920;11.612;2022-10-19T04:12:15;10.40;99.90
22795;DHT22;11564;50.920;11.612;2022-10-19T04:14:40;10.30;99.90
22795;DHT22;11564;50.920;11.612;2022-10-19T04:17:06;10.40;99.90
22795;DHT22;11564;50.920;11.612;2022-10-19T04:19:32;10.50;99.90
22795;DHT22;11564;50.920;11.612;2022-10-19T04:21:57;10.50;99.90
22795;DHT22;11564;50.920;11.612;2022-10-19T04:24:23;10.60;99.90
22795;DHT22;11564;50.920;11.612;2022-10-19T04:26:51;10.60;99.90
22795;DHT22;11564;50.920;11.612;2022-10-19T04:29:18;10.60;99.90
22795;DHT22;11564;50.920;11.612;2022-10-19T04:31:44;10.50;99.90
22795;DHT22;11564;50.920;11.612;2022-10-19T04:34:10;10.40;99.90
22795;DHT22;11564;50.920;11.612;2022-10-19T04:36:36;10.50;99.90
22795;DHT22;11564;50.920;11.612;2022-10-19T04:39:03;10.50;99.90
22795;DHT22;11564;50.920;11.612;2022-10-19T04:41:28;10.40;99.90
22795;DHT22;11564;50.920;11.612;2022-10-19T04:44:01;10.40;99.90
22795;DHT22;11564;50.920;11.612;2022-10-19T04:46:28;10.30;99.90
22795;DHT22;11564;50.920;11.612;2022-10-19T04:48:55;10.30;99.90
22795;DHT22;11564;50.920;11.612;2022-10-19T04:51:21;10.30;99.90
22795;DHT22;11564;50.920;11.612;2022-10-19T04:53:48;10.30;99.90
22795;DHT22;11564;50.920;11.612;2022-10-19T04:56:17;10.20;99.90
22795;DHT22;11564;50.920;11.612;2022-10-19T04:58:43;10.20;99.90
22795;DHT22;11564;50.920;11.612;2022-10-19T05:01:19;10.10;99.90
22795;DHT22;11564;50.920;11.612;2022-10-19T05:03:45;10.00;99.90
22795;DHT22;11564;50.920;11.612;2022-10-19T05:06:12;10.00;99.90
22795;DHT22;11564;50.920;11.612;2022-10-19T05:08:38;10.10;99.90
22795;DHT22;11564;50.920;11.612;2022-10-19T05:11:13;10.20;99.90
22795;DHT22;11564;50.920;11.612;2022-10-19T05:13:40;10.20;99.90
22795;DHT22;11564;50.920;11.612;2022-10-19T05:16:07;10.30;99.90
22795;DHT22;11564;50.920;11.612;2022-10-19T05:18:35;10.30;99.90
22795;DHT22;11564;50.920;11.612;2022-10-19T05:23:30;10.20;99.90
22795;DHT22;11564;50.920;11.612;2022-10-19T05:28:25;10.20;99.90
22795;DHT22;11564;50.920;11.612;2022-10-19T05:30:50;10.20;99.90
22795;DHT22;11564;50.920;11.612;2022-10-19T05:33:16;10.20;99.90
22795;DHT22;11564;50.920;11.612;2022-10-19T05:35:41;10.20;99.90
22795;DHT22;11564;50.920;11.612;2022-10-19T05:38:07;10.20;99.90
22795;DHT22;11564;50.920;11.612;2022-10-19T05:40:33;10.10;99.90
22795;DHT22;11564;50.920;11.612;2022-10-19T05:42:58;10.00;99.90
22795;DHT22;11564;50.920;11.612;2022-10-19T05:45:24;10.10;99.90
22795;DHT22;11564;50.920;11.612;2022-10-19T05:47:49;10.00;99.90
22795;DHT22;11564;50.920;11.612;2022-10-19T05:50:15;9.90;99.90
22795;DHT22;11564;50.920;11.612;2022-10-19T05:52:40;9.90;99.90
22795;DHT22;11564;50.920;11.612;2022-10-19T05:55:06;9.70;99.90
22795;DHT22;11564;50.920;11.612;2022-10-19T05:57:32;9.70;99.90
22795;DHT22;11564;50.920;11.612;2022-10-19T05:59:57;9.60;99.90
22795;DHT22;11564;50.920;11.612;2022-10-19T06:02:23;9.50;99.90
22795;DHT22;11564;50.920;11.612;2022-10-19T06:04:49;9.30;99.90
22795;DHT22;11564;50.920;11.612;2022-10-19T06:07:14;9.30;99.90
22795;DHT22;11564;50.920;11.612;2022-10-19T06:09:40;9.20;99.90
22795;DHT22;11564;50.920;11.612;2022-10-19T06:12:06;9.20;99.90
22795;DHT22;11564;50.920;11.612;2022-10-19T06:14:31;9.20;99.90
22795;DHT22;11564;50.920;11.612;2022-10-19T06:16:57;9.40;99.90
22795;DHT22;11564;50.920;11.612;2022-10-19T06:19:22;9.40;99.90
22795;DHT22;11564;50.920;11.612;2022-10-19T06:21:48;9.40;99.90
22795;DHT22;11564;50.920;11.612;2022-10-19T06:24:13;9.50;99.90
22795;DHT22;11564;50.920;11.612;2022-10-19T06:26:39;9.60;99.90
22795;DHT22;11564;50.920;11.612;2022-10-19T06:29:05;9.70;99.90
22795;DHT22;11564;50.920;11.612;2022-10-19T06:31:32;9.70;99.90
22795;DHT22;11564;50.920;11.612;2022-10-19T06:33:58;9.90;99.90
22795;DHT22;11564;50.920;11.612;2022-10-19T06:36:27;10.00;99.90
22795;DHT22;11564;50.920;11.612;2022-10-19T06:38:53;10.10;99.90
22795;DHT22;11564;50.920;11.612;2022-10-19T06:41:19;10.10;99.90
22795;DHT22;11564;50.920;11.612;2022-10-19T06:43:52;10.20;99.90
22795;DHT22;11564;50.920;11.612;2022-10-19T06:46:19;10.30;99.90
22795;DHT22;11564;50.920;11.612;2022-10-19T06:48:54;10.40;99.90
22795;DHT22;11564;50.920;11.612;2022-10-19T06:51:20;10.50;99.90
22795;DHT22;11564;50.920;11.612;2022-10-19T06:53:46;10.60;99.90
22795;DHT22;11564;50.920;11.612;2022-10-19T06:56:11;10.50;99.90
22795;DHT22;11564;50.920;11.612;2022-10-19T06:58:38;10.70;99.90
22795;DHT22;11564;50.920;11.612;2022-10-19T07:01:04;10.60;99.90
22795;DHT22;11564;50.920;11.612;2022-10-19T07:03:32;10.60;99.90
22795;DHT22;11564;50.920;11.612;2022-10-19T07:05:59;10.70;99.90
22795;DHT22;11564;50.920;11.612;2022-10-19T07:08:26;10.90;99.90
22795;DHT22;11564;50.920;11.612;2022-10-19T07:10:57;10.90;99.90
22795;DHT22;11564;50.920;11.612;2022-10-19T07:13:24;10.80;99.90
22795;DHT22;11564;50.920;11.612;2022-10-19T07:16:05;10.80;99.90
22795;DHT22;11564;50.920;11.612;2022-10-19T07:18:33;11.00;99.90
22795;DHT22;11564;50.920;11.612;2022-10-19T07:21:00;11.10;99.90
22795;DHT22;11564;50.920;11.612;2022-10-19T07:23:28;11.10;99.90
22795;DHT22;11564;50.920;11.612;2022-10-19T07:25:54;11.30;99.90
22795;DHT22;11564;50.920;11.612;2022-10-19T07:28:25;11.30;99.90
22795;DHT22;11564;50.920;11.612;2022-10-19T07:30:51;11.30;99.90
22795;DHT22;11564;50.920;11.612;2022-10-19T07:33:16;11.50;99.90
22795;DHT22;11564;50.920;11.612;2022-10-19T07:35:42;11.40;99.90
22795;DHT22;11564;50.920;11.612;2022-10-19T07:38:07;11.60;99.90
22795;DHT22;11564;50.920;11.612;2022-10-19T07:40:34;11.40;99.90
22795;DHT22;11564;50.920;11.612;2022-10-19T07:43:00;11.40;99.90
22795;DHT22;11564;50.920;11.612;2022-10-19T07:45:25;11.40;99.90
22795;DHT22;11564;50.920;11.612;2022-10-19T07:47:51;11.40;99.90
22795;DHT22;11564;50.920;11.612;2022-10-19T07:50:17;11.60;99.90
22795;DHT22;11564;50.920;11.612;2022-10-19T07:52:42;11.70;99.90
22795;DHT22;11564;50.920;11.612;2022-10-19T07:55:08;11.80;99.90
22795;DHT22;11564;50.920;11.612;2022-10-19T07:57:34;12.10;99.90
22795;DHT22;11564;50.920;11.612;2022-10-19T08:00:00;12.20;99.90
22795;DHT22;11564;50.920;11.612;2022-10-19T08:02:25;12.10;99.90
22795;DHT22;11564;50.920;11.612;2022-10-19T08:04:51;12.00;99.90
22795;DHT22;11564;50.920;11.612;2022-10-19T08:07:16;11.80;99.90
22795;DHT22;11564;50.920;11.612;2022-10-19T08:09:42;12.00;99.90
22795;DHT22;11564;50.920;11.612;2022-10-19T08:12:08;12.20;99.90
22795;DHT22;11564;50.920;11.612;2022-10-19T08:14:34;12.00;99.90
22795;DHT22;11564;50.920;11.612;2022-10-19T08:17:00;11.60;99.90
22795;DHT22;11564;50.920;11.612;2022-10-19T08:19:26;11.60;99.90
22795;DHT22;11564;50.920;11.612;2022-10-19T08:21:52;11.60;99.90
22795;DHT22;11564;50.920;11.612;2022-10-19T08:24:19;11.90;99.90
22795;DHT22;11564;50.920;11.612;2022-10-19T08:26:44;11.90;99.90
22795;DHT22;11564;50.920;11.612;2022-10-19T08:29:16;12.00;99.90
22795;DHT22;11564;50.920;11.612;2022-10-19T08:31:43;11.90;99.90
22795;DHT22;11564;50.920;11.612;2022-10-19T08:34:09;11.90;99.90
22795;DHT22;11564;50.920;11.612;2022-10-19T08:36:35;12.20;99.90
22795;DHT22;11564;50.920;11.612;2022-10-19T08:39:03;12.30;99.90
22795;DHT22;11564;50.920;11.612;2022-10-19T08:47:13;12.80;99.90
22795;DHT22;11564;50.920;11.612;2022-10-19T08:49:40;12.50;99.90
22795;DHT22;11564;50.920;11.612;2022-10-19T08:52:26;12.60;99.90
22795;DHT22;11564;50.920;11.612;2022-10-19T08:54:58;12.50;99.90
22795;DHT22;11564;50.920;11.612;2022-10-19T09:00:11;13.40;99.90
22795;DHT22;11564;50.920;11.612;2022-10-19T09:02:47;13.60;99.90
22795;DHT22;11564;50.920;11.612;2022-10-19T09:05:22;13.90;99.90
22795;DHT22;11564;50.920;11.612;2022-10-19T09:07:52;13.40;99.90
22795;DHT22;11564;50.920;11.612;2022-10-19T09:10:23;13.20;99.90
22795;DHT22;11564;50.920;11.612;2022-10-19T09:12:52;13.30;99.90
22795;DHT22;11564;50.920;11.612;2022-10-19T09:15:21;13.30;99.90
22795;DHT22;11564;50.920;11.612;2022-10-19T09:17:49;13.60;99.90
22795;DHT22;11564;50.920;11.612;2022-10-19T09:20:18;13.90;99.90
22795;DHT22;11564;50.920;11.612;2022-10-19T09:22:45;14.20;99.90
22795;DHT22;11564;50.920;11.612;2022-10-19T09:25:20;14.30;99.90
22795;DHT22;11564;50.920;11.612;2022-10-19T09:27:50;14.00;99.90
22795;DHT22;11564;50.920;11.612;2022-10-19T09:30:22;14.00;99.90
22795;DHT22;11564;50.920;11.612;2022-10-19T09:32:58;13.90;99.90
22795;DHT22;11564;50.920;11.612;2022-10-19T09:35:41;14.00;99.90
22795;DHT22;11564;50.920;11.612;2022-10-19T09:38:09;13.80;99.90
22795;DHT22;11564;50.920;11.612;2022-10-19T09:40:35;13.60;99.90
22795;DHT22;11564;50.920;11.612;2022-10-19T09:43:00;13.30;99.90
22795;DHT22;11564;50.920;11.612;2022-10-19T09:48:43;13.60;99.90
22795;DHT22;11564;50.920;11.612;2022-10-19T09:51:14;13.10;99.90
22795;DHT22;11564;50.920;11.612;2022-10-19T09:53:55;12.70;99.90
22795;DHT22;11564;50.920;11.612;2022-10-19T09:56:24;12.70;99.90
22795;DHT22;11564;50.920;11.612;2022-10-19T09:58:57;12.90;99.90
22795;DHT22;11564;50.920;11.612;2022-10-19T10:01:30;13.10;99.90
22795;DHT22;11564;50.920;11.612;2022-10-19T10:04:25;13.40;99.90
22795;DHT22;11564;50.920;11.612;2022-10-19T10:06:53;13.70;98.80
22795;DHT22;11564;50.920;11.612;2022-10-19T10:09:26;13.90;97.10
22795;DHT22;11564;50.920;11.612;2022-10-19T10:11:53;13.80;96.70
22795;DHT22;11564;50.920;11.612;2022-10-19T10:14:32;13.50;97.10
22795;DHT22;11564;50.920;11.612;2022-10-19T10:17:03;13.70;96.90
22795;DHT22;11564;50.920;11.612;2022-10-19T10:19:31;13.30;97.40
22795;DHT22;11564;50.920;11.612;2022-10-19T10:21:58;13.40;98.10
22795;DHT22;11564;50.920;11.612;2022-10-19T10:24:26;13.50;98.10
22795;DHT22;11564;50.920;11.612;2022-10-19T10:27:00;13.80;97.00
22795;DHT22;11564;50.920;11.612;2022-10-19T10:29:33;13.90;97.40
22795;DHT22;11564;50.920;11.612;2022-10-19T10:34:39;13.90;97.90
22795;DHT22;11564;50.920;11.612;2022-10-19T10:37:07;14.00;97.30
22795;DHT22;11564;50.920;11.612;2022-10-19T10:39:42;13.70;98.00
22795;DHT22;11564;50.920;11.612;2022-10-19T10:42:14;13.80;99.00
22795;DHT22;11564;50.920;11.612;2022-10-19T10:44:47;13.90;97.80
22795;DHT22;11564;50.920;11.612;2022-10-19T10:47:16;13.50;98.20
22795;DHT22;11564;50.920;11.612;2022-10-19T10:49:53;13.80;99.00
22795;DHT22;11564;50.920;11.612;2022-10-19T10:52:20;13.90;98.30
22795;DHT22;11564;50.920;11.612;2022-10-19T10:57:40;14.10;96.90
22795;DHT22;11564;50.920;11.612;2022-10-19T11:00:20;14.00;96.60
22795;DHT22;11564;50.920;11.612;2022-10-19T11:03:28;13.70;97.80
22795;DHT22;11564;50.920;11.612;2022-10-19T11:05:44;13.70;97.20
22795;DHT22;11564;50.920;11.612;2022-10-19T11:13:49;12.80;97.10
22795;DHT22;11564;50.920;11.612;2022-10-19T11:16:17;13.00;97.00
22795;DHT22;11564;50.920;11.612;2022-10-19T11:18:48;12.80;95.70
22795;DHT22;11564;50.920;11.612;2022-10-19T11:24:12;12.90;97.50
22795;DHT22;11564;50.920;11.612;2022-10-19T11:31:54;12.90;95.70
22795;DHT22;11564;50.920;11.612;2022-10-19T11:37:22;13.40;95.60
22795;DHT22;11564;50.920;11.612;2022-10-19T11:46:22;13.90;96.40
22795;DHT22;11564;50.920;11.612;2022-10-19T11:49:18;13.50;94.50
22795;DHT22;11564;50.920;11.612;2022-10-19T11:51:53;13.70;94.00
22795;DHT22;11564;50.920;11.612;2022-10-19T11:54:43;14.10;93.30
22795;DHT22;11564;50.920;11.612;2022-10-19T11:57:27;14.10;92.70
22795;DHT22;11564;50.920;11.612;2022-10-19T12:00:09;14.10;92.70
22795;DHT22;11564;50.920;11.612;2022-10-19T12:02:47;14.60;91.80
22795;DHT22;11564;50.920;11.612;2022-10-19T12:07:54;14.80;90.60
22795;DHT22;11564;50.920;11.612;2022-10-19T12:10:32;15.00;91.10
22795;DHT22;11564;50.920;11.612;2022-10-19T12:13:03;15.40;91.70
22795;DHT22;11564;50.920;11.612;2022-10-19T12:15:42;15.40;89.70
22795;DHT22;11564;50.920;11.612;2022-10-19T12:18:13;14.40;90.60
22795;DHT22;11564;50.920;11.612;2022-10-19T12:20:46;13.90;91.20
22795;DHT22;11564;50.920;11.612;2022-10-19T12:25:50;13.80;92.30
22795;DHT22;11564;50.920;11.612;2022-10-19T12:28:27;14.10;93.50
22795;DHT22;11564;50.920;11.612;2022-10-19T12:30:53;14.40;93.10
22795;DHT22;11564;50.920;11.612;2022-10-19T12:33:22;14.50;93.60
22795;DHT22;11564;50.920;11.612;2022-10-19T12:43:44;14.30;93.60
22795;DHT22;11564;50.920;11.612;2022-10-19T12:46:36;14.20;93.60
22795;DHT22;11564;50.920;11.612;2022-10-19T12:51:52;14.10;92.60
22795;DHT22;11564;50.920;11.612;2022-10-19T12:54:23;13.80;92.40
22795;DHT22;11564;50.920;11.612;2022-10-19T12:56:51;14.00;93.50
22795;DHT22;11564;50.920;11.612;2022-10-19T12:59:26;14.20;94.20
22795;DHT22;11564;50.920;11.612;2022-10-19T13:01:53;14.50;92.90
22795;DHT22;11564;50.920;11.612;2022-10-19T13:04:23;14.30;91.60
22795;DHT22;11564;50.920;11.612;2022-10-19T13:09:41;14.10;92.40
22795;DHT22;11564;50.920;11.612;2022-10-19T13:22:47;14.10;90.80
22795;DHT22;11564;50.920;11.612;2022-10-19T13:25:27;14.20;92.50
22795;DHT22;11564;50.920;11.612;2022-10-19T13:59:54;15.00;90.00
22795;DHT22;11564;50.920;11.612;2022-10-19T14:02:41;16.00;85.90
22795;DHT22;11564;50.920;11.612;2022-10-19T14:10:49;15.50;89.10
22795;DHT22;11564;50.920;11.612;2022-10-19T14:13:16;15.20;90.30
22795;DHT22;11564;50.920;11.612;2022-10-19T14:15:53;15.00;89.70
22795;DHT22;11564;50.920;11.612;2022-10-19T14:18:29;14.80;89.50
22795;DHT22;11564;50.920;11.612;2022-10-19T14:21:06;14.60;90.90
22795;DHT22;11564;50.920;11.612;2022-10-19T14:23:35;14.50;91.70
22795;DHT22;11564;50.920;11.612;2022-10-19T14:26:09;14.40;91.20
22795;DHT22;11564;50.920;11.612;2022-10-19T14:28:36;14.20;91.30
22795;DHT22;11564;50.920;11.612;2022-10-19T14:31:07;14.10;91.50
22795;DHT22;11564;50.920;11.612;2022-10-19T14:33:37;14.10;91.60
22795;DHT22;11564;50.920;11.612;2022-10-19T14:36:04;14.00;91.00
22795;DHT22;11564;50.920;11.612;2022-10-19T14:38:36;13.80;91.40
22795;DHT22;11564;50.920;11.612;2022-10-19T14:41:06;13.70;91.10
22795;DHT22;11564;50.920;11.612;2022-10-19T14:43:41;13.60;91.80
22795;DHT22;11564;50.920;11.612;2022-10-19T14:46:08;13.60;92.80
22795;DHT22;11564;50.920;11.612;2022-10-19T14:48:42;13.40;93.10
22795;DHT22;11564;50.920;11.612;2022-10-19T14:53:57;13.30;93.00
22795;DHT22;11564;50.920;11.612;2022-10-19T14:56:33;13.20;92.90
22795;DHT22;11564;50.920;11.612;2022-10-19T14:59:23;13.00;93.30
22795;DHT22;11564;50.920;11.612;2022-10-19T15:01:52;13.00;94.30
22795;DHT22;11564;50.920;11.612;2022-10-19T15:04:27;12.90;93.80
22795;DHT22;11564;50.920;11.612;2022-10-19T15:06:54;12.90;94.20
22795;DHT22;11564;50.920;11.612;2022-10-19T15:09:29;12.80;93.90
22795;DHT22;11564;50.920;11.612;2022-10-19T15:12:03;12.70;93.60
22795;DHT22;11564;50.920;11.612;2022-10-19T15:14:31;12.50;93.70
22795;DHT22;11564;50.920;11.612;2022-10-19T15:16:59;12.40;93.60
22795;DHT22;11564;50.920;11.612;2022-10-19T15:27:43;12.20;94.80
22795;DHT22;11564;50.920;11.612;2022-10-19T15:32:45;12.10;95.10
22795;DHT22;11564;50.920;11.612;2022-10-19T15:35:28;12.00;94.60
22795;DHT22;11564;50.920;11.612;2022-10-19T15:40:41;11.90;95.70
22795;DHT22;11564;50.920;11.612;2022-10-19T15:48:54;11.50;96.00
22795;DHT22;11564;50.920;11.612;2022-10-19T15:53:59;11.40;95.90
22795;DHT22;11564;50.920;11.612;2022-10-19T15:56:28;11.20;96.50
22795;DHT22;11564;50.920;11.612;2022-10-19T15:58:56;11.20;96.80
22795;DHT22;11564;50.920;11.612;2022-10-19T16:01:32;11.10;97.50
22795;DHT22;11564;50.920;11.612;2022-10-19T16:03:58;10.90;98.70
22795;DHT22;11564;50.920;11.612;2022-10-19T16:06:26;10.80;99.10
22795;DHT22;11564;50.920;11.612;2022-10-19T16:08:52;10.70;99.80
22795;DHT22;11564;50.920;11.612;2022-10-19T16:11:20;10.60;99.90
22795;DHT22;11564;50.920;11.612;2022-10-19T16:13:47;10.60;99.90
22795;DHT22;11564;50.920;11.612;2022-10-19T16:16:23;10.60;99.90
22795;DHT22;11564;50.920;11.612;2022-10-19T16:18:49;10.60;99.90
22795;DHT22;11564;50.920;11.612;2022-10-19T16:21:16;10.60;99.90
22795;DHT22;11564;50.920;11.612;2022-10-19T16:23:41;10.50;99.90
22795;DHT22;11564;50.920;11.612;2022-10-19T16:26:07;10.50;99.90
22795;DHT22;11564;50.920;11.612;2022-10-19T16:28:32;10.40;99.90
22795;DHT22;11564;50.920;11.612;2022-10-19T16:30:58;10.40;99.90
22795;DHT22;11564;50.920;11.612;2022-10-19T16:33:24;10.40;99.90
22795;DHT22;11564;50.920;11.612;2022-10-19T16:35:49;10.30;99.90
22795;DHT22;11564;50.920;11.612;2022-10-19T16:38:15;10.30;99.90
22795;DHT22;11564;50.920;11.612;2022-10-19T16:40:40;10.30;99.90
22795;DHT22;11564;50.920;11.612;2022-10-19T16:43:06;10.20;99.90
22795;DHT22;11564;50.920;11.612;2022-10-19T16:45:31;10.20;99.90
22795;DHT22;11564;50.920;11.612;2022-10-19T16:47:57;10.10;99.90
22795;DHT22;11564;50.920;11.612;2022-10-19T16:50:23;10.10;99.90
22795;DHT22;11564;50.920;11.612;2022-10-19T16:53:03;10.10;99.90
22795;DHT22;11564;50.920;11.612;2022-10-19T16:55:29;10.10;99.90
22795;DHT22;11564;50.920;11.612;2022-10-19T16:57:55;10.10;99.90
22795;DHT22;11564;50.920;11.612;2022-10-19T17:00:21;10.10;99.90
22795;DHT22;11564;50.920;11.612;2022-10-19T17:02:46;10.10;99.90
22795;DHT22;11564;50.920;11.612;2022-10-19T17:05:12;10.10;99.90
22795;DHT22;11564;50.920;11.612;2022-10-19T17:07:37;10.00;99.90
22795;DHT22;11564;50.920;11.612;2022-10-19T17:10:03;10.00;99.90
22795;DHT22;11564;50.920;11.612;2022-10-19T17:12:29;9.90;99.90
22795;DHT22;11564;50.920;11.612;2022-10-19T17:14:55;9.90;99.90
22795;DHT22;11564;50.920;11.612;2022-10-19T17:17:20;9.90;99.90
22795;DHT22;11564;50.920;11.612;2022-10-19T17:19:46;9.90;99.90
22795;DHT22;11564;50.920;11.612;2022-10-19T17:22:13;9.90;99.90
22795;DHT22;11564;50.920;11.612;2022-10-19T17:24:38;9.90;99.90
22795;DHT22;11564;50.920;11.612;2022-10-19T17:27:04;9.90;99.90
22795;DHT22;11564;50.920;11.612;2022-10-19T17:29:30;9.80;99.90
22795;DHT22;11564;50.920;11.612;2022-10-19T17:31:55;9.80;99.90
22795;DHT22;11564;50.920;11.612;2022-10-19T17:34:21;9.70;99.90
22795;DHT22;11564;50.920;11.612;2022-10-19T17:36:47;9.60;99.90
22795;DHT22;11564;50.920;11.612;2022-10-19T17:39:16;9.50;99.90
22795;DHT22;11564;50.920;11.612;2022-10-19T17:41:46;9.50;99.90
22795;DHT22;11564;50.920;11.612;2022-10-19T17:44:12;9.40;99.90
22795;DHT22;11564;50.920;11.612;2022-10-19T17:46:39;9.40;99.90
22795;DHT22;11564;50.920;11.612;2022-10-19T17:49:05;9.30;99.90
22795;DHT22;11564;50.920;11.612;2022-10-19T17:51:32;9.20;99.90
22795;DHT22;11564;50.920;11.612;2022-10-19T17:54:00;9.10;99.90
22795;DHT22;11564;50.920;11.612;2022-10-19T17:56:27;9.10;99.90
22795;DHT22;11564;50.920;11.612;2022-10-19T17:58:53;9.00;99.90
22795;DHT22;11564;50.920;11.612;2022-10-19T18:01:21;9.00;99.90
22795;DHT22;11564;50.920;11.612;2022-10-19T18:03:47;8.90;99.90
22795;DHT22;11564;50.920;11.612;2022-10-19T18:06:21;8.70;99.90
22795;DHT22;11564;50.920;11.612;2022-10-19T18:08:50;8.50;99.90
22795;DHT22;11564;50.920;11.612;2022-10-19T18:11:22;8.30;99.90